Time;durP1;ratioP1;P1;durP2;ratioP2;P2;SDS_P1;SDS_P2;PMS_P1;PMS_P2;Temp;Humidity;BMP_temperature;BMP_pressure;BME280_temperature;BME280_humidity;BME280_pressure;Samples;Min_cycle;Max_cycle;Signal;HPM_P1;HPM_P2
2022/07/22 00:01:37;;;;;;;;;14.33;14.33;;;;;21.69;61.17;101736.25;5080088;27;64403;-68
2022/07/22 00:04:03;;;;;;;;;12.67;12.67;;;;;21.69;60.87;101737.09;5079829;27;65383;-67
2022/07/22 00:06:29;;;;;;;;;14.67;14.00;;;;;;;;5080821;27;45376;-68
2022/07/22 00:08:55;;;;;;;;;19.33;18.00;;;;;21.67;60.63;101730.09;5080812;27;45330;-68
2022/07/22 00:11:20;;;;;;;;;18.33;17.00;;;;;21.64;60.60;101734.78;5080576;28;46115;-68
2022/07/22 00:13:46;;;;;;;;;11.67;11.67;;;;;21.58;60.12;101729.88;5080594;27;45422;-68
2022/07/22 00:16:11;;;;;;;;;18.00;15.67;;;;;21.53;60.60;101725.81;5080812;27;45433;-68
2022/07/22 00:18:36;;;;;;;;;20.33;19.00;;;;;21.47;61.18;101728.03;5080451;27;45512;-68
2022/07/22 00:21:02;;;;;;;;;14.33;14.33;;;;;21.36;61.64;101725.31;5079640;27;63974;-68
2022/07/22 00:23:27;;;;;;;;;26.67;20.00;;;;;21.28;62.19;101730.50;5080376;27;45654;-68
2022/07/22 00:25:53;;;;;;;;;27.00;24.67;;;;;21.23;61.82;101720.03;5080475;27;45669;-68
2022/07/22 00:28:19;;;;;;;;;25.00;23.33;;;;;21.21;62.25;101722.03;5080452;27;45441;-68
2022/07/22 00:30:44;;;;;;;;;25.00;22.67;;;;;21.20;62.54;101719.44;5080004;28;46174;-68
2022/07/22 00:33:09;;;;;;;;;27.33;27.33;;;;;21.18;60.90;101714.16;5079195;28;68682;-68
2022/07/22 00:35:35;;;;;;;;;20.33;18.00;;;;;21.17;61.67;101712.41;5079305;27;62308;-67
2022/07/22 00:38:00;;;;;;;;;25.67;23.00;;;;;21.19;61.52;101712.31;5080050;27;45518;-67
2022/07/22 00:40:26;;;;;;;;;19.67;18.67;;;;;21.17;61.75;101709.72;5079378;27;70189;-68
2022/07/22 00:42:52;;;;;;;;;12.67;12.00;;;;;21.12;61.58;101704.69;5079488;27;60806;-67
2022/07/22 00:45:18;;;;;;;;;24.00;20.33;;;;;21.10;62.05;101705.81;5080316;27;45440;-67
2022/07/22 00:47:43;;;;;;;;;16.67;16.67;;;;;21.07;62.30;101695.25;5080046;27;45832;-67
2022/07/22 00:50:09;;;;;;;;;26.67;24.33;;;;;21.00;62.18;101692.16;5079528;27;49535;-67
2022/07/22 00:52:35;;;;;;;;;21.67;20.00;;;;;20.96;62.55;101701.50;5079213;27;66325;-67
2022/07/22 00:55:01;;;;;;;;;28.33;24.67;;;;;20.90;63.25;101693.88;5079687;27;51352;-67
2022/07/22 00:57:27;;;;;;;;;27.33;25.33;;;;;20.84;62.76;101688.97;5080108;27;45300;-67
2022/07/22 00:59:52;;;;;;;;;24.67;22.67;;;;;20.80;62.91;101688.34;5078984;28;64907;-67
2022/07/22 01:02:18;;;;;;;;;25.33;24.00;;;;;20.77;62.83;101692.16;5080066;27;45447;-67
2022/07/22 01:04:43;;;;;;;;;21.67;20.67;;;;;20.78;62.91;101690.31;5078930;27;58868;-67
2022/07/22 01:07:08;;;;;;;;;30.00;27.67;;;;;20.78;61.87;101685.78;5079898;27;45300;-67
2022/07/22 01:09:34;;;;;;;;;30.33;25.00;;;;;20.79;62.63;101689.31;5079533;27;46043;-68
2022/07/22 01:12:00;;;;;;;;;19.00;19.00;;;;;20.78;62.61;101691.19;5079687;27;45369;-68
2022/07/22 01:14:25;;;;;;;;;17.33;17.33;;;;;20.75;62.21;101693.25;5079722;27;45616;-67
2022/07/22 01:16:51;;;;;;;;;18.67;18.67;;;;;20.76;62.31;101685.03;5078924;27;62110;-68
2022/07/22 01:19:16;;;;;;;;;17.67;15.67;;;;;20.79;61.48;101684.78;5079116;27;45890;-68
2022/07/22 01:21:42;;;;;;;;;19.00;19.00;;;;;20.82;62.29;101689.09;5079535;27;45369;-68
2022/07/22 01:24:07;;;;;;;;;18.00;18.00;;;;;20.77;62.47;101692.16;5079565;27;45331;-68
2022/07/22 01:26:33;;;;;;;;;23.00;21.00;;;;;20.73;61.86;101685.28;5079218;27;52814;-69
2022/07/22 01:28:58;;;;;;;;;16.33;13.33;;;;;20.71;62.41;101691.78;5079061;27;45378;-69
2022/07/22 01:31:24;;;;;;;;;19.00;18.67;;;;;20.64;62.86;101686.81;5077969;28;45538;-68
2022/07/22 01:33:49;;;;;;;;;14.00;13.67;;;;;20.59;62.60;101690.88;5079224;27;46464;-68
2022/07/22 01:36:15;;;;;;;;;16.00;15.00;;;;;20.54;61.93;101677.72;5079461;27;45342;-68
2022/07/22 01:38:40;;;;;;;;;16.33;14.67;;;;;20.56;62.63;101683.00;5078225;27;72223;-68
2022/07/22 01:41:05;;;;;;;;;13.33;11.67;;;;;20.57;62.05;101680.19;5079376;27;45251;-68
2022/07/22 01:43:31;;;;;;;;;10.33;10.33;;;;;20.62;62.73;101683.41;5078164;28;45610;-68
2022/07/22 01:45:56;;;;;;;;;14.67;14.67;;;;;20.66;62.47;101681.28;5079385;27;45556;-68
2022/07/22 01:48:22;;;;;;;;;11.67;11.67;;;;;20.64;62.10;101677.88;5078485;27;45923;-68
2022/07/22 01:50:48;;;;;;;;;14.00;14.00;;;;;20.62;62.09;101677.13;5078970;27;45918;-68
2022/07/22 01:53:14;;;;;;;;;12.00;12.00;;;;;20.63;62.52;101682.41;5079237;27;45374;-68
2022/07/22 01:55:39;;;;;;;;;12.67;12.00;;;;;20.64;62.10;101683.28;5079302;27;45429;-68
2022/07/22 01:58:05;;;;;;;;;14.67;14.67;;;;;20.62;61.74;101677.13;5078782;27;52078;-68
2022/07/22 02:00:34;;;;;;;;;11.00;9.67;;;;;20.60;62.63;101665.59;5079237;27;45373;-67
2022/07/22 02:02:59;;;;;;;;;12.67;12.67;;;;;20.59;61.88;101667.41;5079238;27;45360;-67
2022/07/22 02:05:25;;;;;;;;;10.00;10.00;;;;;20.65;61.45;101671.50;5079759;27;45370;-67
2022/07/22 02:07:50;;;;;;;;;10.67;10.33;;;;;20.64;62.01;101673.31;5079525;27;46030;-67
2022/07/22 02:10:16;;;;;;;;;14.67;12.00;;;;;20.64;61.78;101661.66;5079525;27;45492;-67
2022/07/22 02:12:41;;;;;;;;;4.33;3.00;;;;;20.65;61.54;101666.09;5080004;27;45251;-67
2022/07/22 02:15:08;;;;;;;;;5.33;5.33;;;;;20.59;61.85;101672.81;5079965;27;45581;-67
2022/07/22 02:17:34;;;;;;;;;13.33;13.00;;;;;20.56;61.91;101666.78;5079662;27;47116;-67
2022/07/22 02:19:59;;;;;;;;;9.00;8.00;;;;;20.52;61.61;101670.72;5079402;27;45345;-67
2022/07/22 02:22:25;;;;;;;;;17.33;13.33;;;;;20.50;61.21;101666.28;5079615;27;45429;-67
2022/07/22 02:24:50;;;;;;;;;13.00;13.00;;;;;20.48;61.30;101670.09;5079098;27;58706;-67
2022/07/22 02:27:15;;;;;;;;;11.33;11.33;;;;;20.48;61.53;101664.69;5079140;27;45904;-67
2022/07/22 02:29:41;;;;;;;;;9.33;9.33;;;;;20.50;61.39;101676.25;5079216;27;45452;-66
2022/07/22 02:32:06;;;;;;;;;11.33;11.33;;;;;20.50;61.29;101671.69;5079740;27;45342;-67
2022/07/22 02:34:31;;;;;;;;;12.00;11.00;;;;;20.49;61.25;101671.81;5079344;27;45339;-67
2022/07/22 02:36:57;;;;;;;;;11.33;11.33;;;;;20.50;61.75;101679.78;5078501;27;73120;-66
2022/07/22 02:39:22;;;;;;;;;11.67;11.67;;;;;20.54;61.96;101671.47;5079355;27;45409;-66
2022/07/22 02:41:48;;;;;;;;;11.00;10.67;;;;;20.50;61.46;101674.38;5079554;28;45331;-66
2022/07/22 02:44:13;;;;;;;;;11.33;9.67;;;;;20.47;61.43;101677.34;5078817;27;60594;-66
2022/07/22 02:46:38;;;;;;;;;13.00;12.00;;;;;20.47;62.20;101671.94;5078475;27;69239;-67
2022/07/22 02:49:05;;;;;;;;;11.00;10.67;;;;;20.45;61.80;101670.34;5077838;28;45670;-67
2022/07/22 02:51:30;;;;;;;;;11.33;10.33;;;;;20.42;61.80;101670.59;5079257;27;45567;-67
2022/07/22 02:53:56;;;;;;;;;12.33;10.67;;;;;20.39;62.17;101669.00;5079423;27;45453;-67
2022/07/22 02:56:21;;;;;;;;;10.00;10.00;;;;;20.30;62.03;101665.16;5079228;28;45283;-67
2022/07/22 02:58:47;;;;;;;;;13.33;12.00;;;;;20.21;62.73;101665.00;5078931;27;51088;-67
2022/07/22 03:01:12;;;;;;;;;13.00;12.00;;;;;20.14;62.57;101664.63;5081334;27;64055;-67
2022/07/22 03:03:38;;;;;;;;;12.00;12.00;;;;;20.07;62.16;101652.56;5082583;28;45394;-67
2022/07/22 03:06:04;;;;;;;;;13.00;13.00;;;;;20.03;62.82;101656.50;5082480;27;45628;-67
2022/07/22 03:08:30;;;;;;;;;12.33;12.33;;;;;20.00;62.16;101652.19;5082567;27;45373;-67
2022/07/22 03:10:55;;;;;;;;;11.00;9.00;;;;;20.02;62.58;101657.47;5081830;27;61549;-67
2022/07/22 03:13:20;;;;;;;;;10.67;10.67;;;;;20.06;62.61;101653.56;5081948;27;60394;-67
2022/07/22 03:15:46;;;;;;;;;10.33;10.33;;;;;20.10;62.66;101655.03;5082210;27;45794;-67
2022/07/22 03:18:11;;;;;;;;;11.00;10.00;;;;;20.07;62.58;101652.56;5082304;27;45410;-67
2022/07/22 03:20:36;;;;;;;;;10.33;9.67;;;;;20.03;62.50;101660.06;5081454;27;61535;-67
2022/07/22 03:23:02;;;;;;;;;10.33;10.33;;;;;19.97;62.76;101657.81;5082372;27;45461;-67
2022/07/22 03:25:27;;;;;;;;;8.67;8.67;;;;;19.97;62.81;101655.09;5081991;27;45422;-67
2022/07/22 03:27:53;;;;;;;;;10.33;10.33;;;;;19.97;62.77;101645.19;5082184;27;45328;-67
2022/07/22 03:30:18;;;;;;;;;12.00;11.00;;;;;19.94;62.85;101653.50;5081906;28;45786;-67
2022/07/22 03:32:44;;;;;;;;;9.00;9.00;;;;;19.89;62.84;101644.91;5082157;27;45361;-67
2022/07/22 03:35:10;;;;;;;;;9.67;9.33;;;;;19.87;63.08;101654.97;5081281;27;45914;-67
2022/07/22 03:37:36;;;;;;;;;9.00;7.67;;;;;19.87;62.87;101654.09;5081073;27;45679;-67
2022/07/22 03:40:01;;;;;;;;;13.67;11.33;;;;;19.84;63.23;101657.88;5081655;27;45398;-67
2022/07/22 03:42:26;;;;;;;;;12.00;12.00;;;;;19.79;63.27;101651.94;5080240;28;63209;-67
2022/07/22 03:44:51;;;;;;;;;13.00;10.33;;;;;19.75;62.67;101659.44;5080907;27;71228;-67
2022/07/22 03:47:18;;;;;;;;;11.33;10.00;;;;;19.72;63.01;101656.09;5081620;27;51033;-67
2022/07/22 03:49:44;;;;;;;;;10.00;8.00;;;;;19.71;63.09;101660.63;5080791;28;45431;-67
2022/07/22 03:52:09;;;;;;;;;13.00;11.00;;;;;19.71;62.82;101660.63;5081298;27;51774;-66
2022/07/22 03:54:34;;;;;;;;;12.67;11.67;;;;;19.67;63.24;101654.59;5081056;27;67000;-66
2022/07/22 03:57:00;;;;;;;;;18.67;13.00;;;;;19.64;63.66;101659.38;5080929;27;68806;-66
2022/07/22 03:59:25;;;;;;;;;10.00;10.00;;;;;19.58;63.25;101660.69;5080541;28;45401;-66
2022/07/22 04:01:50;;;;;;;;;6.00;5.00;;;;;19.57;63.31;101663.47;5081033;27;61683;-66
2022/07/22 04:04:16;;;;;;;;;9.33;9.33;;;;;19.59;62.75;101669.63;5081353;27;46199;-66
2022/07/22 04:06:41;;;;;;;;;13.00;13.00;;;;;19.59;63.28;101664.25;5079889;27;67489;-66
2022/07/22 04:09:06;;;;;;;;;15.67;13.67;;;;;19.56;62.95;101657.25;5081221;27;55313;-67
2022/07/22 04:11:31;;;;;;;;;11.33;11.00;;;;;19.56;63.47;101664.50;5080516;27;57066;-67
2022/07/22 04:13:57;;;;;;;;;15.33;11.33;;;;;19.53;63.33;101662.88;5080602;27;71780;-66
2022/07/22 04:16:22;;;;;;;;;11.67;9.67;;;;;19.55;63.91;101660.06;5081402;27;45335;-66
2022/07/22 04:18:47;;;;;;;;;8.00;8.00;;;;;19.53;62.90;101652.09;5081272;27;45383;-67
2022/07/22 04:21:13;;;;;;;;;10.67;8.67;;;;;19.48;63.72;101648.88;5080752;27;67424;-67
2022/07/22 04:23:39;;;;;;;;;9.67;9.00;;;;;19.46;63.25;101646.28;5080302;27;72035;-67
2022/07/22 04:26:05;;;;;;;;;11.67;11.67;;;;;19.46;63.71;101646.28;5081375;27;45304;-67
2022/07/22 04:28:33;;;;;;;;;15.33;13.00;;;;;19.44;63.43;101647.38;5081732;27;45422;-67
2022/07/22 04:30:59;;;;;;;;;12.00;11.00;;;;;19.37;63.60;101644.25;5080531;27;45498;-67
2022/07/22 04:33:24;;;;;;;;;16.67;14.67;;;;;19.33;64.11;101646.34;5080089;27;72174;-67
2022/07/22 04:35:49;;;;;;;;;10.00;10.00;;;;;19.34;63.22;101639.09;5081018;27;45404;-67
2022/07/22 04:38:17;;;;;;;;;10.00;8.67;;;;;19.37;63.53;101640.69;5080374;27;60055;-67
2022/07/22 04:40:42;;;;;;;;;12.33;11.00;;;;;19.38;63.52;101643.28;5081152;27;45496;-67
2022/07/22 04:43:08;;;;;;;;;14.67;11.00;;;;;19.40;64.00;101640.47;5080356;27;64955;-67
2022/07/22 04:45:33;;;;;;;;;14.00;13.00;;;;;19.40;63.57;101638.66;5080149;27;69153;-66
2022/07/22 04:47:58;;;;;;;;;12.67;10.33;;;;;19.43;63.74;101642.94;5081135;27;45338;-67
2022/07/22 04:50:24;;;;;;;;;8.33;8.00;;;;;19.43;63.37;101630.31;5080569;27;45303;-66
2022/07/22 04:52:49;;;;;;;;;14.67;11.33;;;;;19.47;63.30;101637.19;5079629;27;71061;-66
2022/07/22 04:55:14;;;;;;;;;10.00;10.00;;;;;19.53;63.28;101640.41;5080774;27;45357;-68
2022/07/22 04:57:40;;;;;;;;;10.67;9.33;;;;;19.53;62.97;101632.31;5080745;27;45354;-67
2022/07/22 05:00:06;;;;;;;;;12.67;11.00;;;;;19.56;63.14;101626.72;5079634;27;64858;-67
2022/07/22 05:02:32;;;;;;;;;13.33;11.00;;;;;19.59;63.15;101630.03;5077558;28;47465;-67
2022/07/22 05:04:58;;;;;;;;;11.33;10.00;;;;;19.63;63.24;101630.66;5080327;27;45304;-67
2022/07/22 05:07:23;;;;;;;;;10.67;10.33;;;;;19.62;63.04;101619.00;5080503;28;45472;-67
2022/07/22 05:09:49;;;;;;;;;12.67;11.00;;;;;19.63;62.75;101620.75;5080068;27;56414;-67
2022/07/22 05:12:14;;;;;;;;;13.67;13.00;;;;;19.64;62.53;101622.44;5079077;28;70403;-67
2022/07/22 05:14:39;;;;;;;;;13.00;11.00;;;;;19.69;62.99;101623.94;5079113;27;57972;-68
2022/07/22 05:17:09;;;;;;;;;12.67;10.67;;;;;19.73;62.77;101623.59;5076758;28;63969;-67
2022/07/22 05:19:39;;;;;;;;;12.67;12.00;;;;;19.78;62.62;101620.56;5079024;27;45600;-67
2022/07/22 05:22:05;;;;;;;;;15.00;12.33;;;;;19.73;62.26;101623.59;5077777;27;47147;-67
2022/07/22 05:24:30;;;;;;;;;12.33;12.33;;;;;19.73;62.89;101628.13;5079303;27;45365;-68
2022/07/22 05:26:57;;;;;;;;;10.67;10.67;;;;;19.70;62.36;101622.94;5078384;28;63065;-67
2022/07/22 05:29:22;;;;;;;;;12.00;11.00;;;;;19.68;62.47;101617.69;5076480;27;45340;-68
2022/07/22 05:31:48;;;;;;;;;10.00;10.00;;;;;19.75;62.82;101618.06;5079217;27;46036;-67
2022/07/22 05:34:13;;;;;;;;;10.00;10.00;;;;;19.83;62.36;101613.00;5079227;27;64113;-67
2022/07/22 05:36:38;;;;;;;;;10.00;10.00;;;;;20.00;62.05;101617.09;5079714;28;45227;-68
2022/07/22 05:39:04;;;;;;;;;11.00;10.67;;;;;20.16;62.00;101617.59;5078224;28;63566;-68
2022/07/22 05:41:30;;;;;;;;;11.00;9.67;;;;;20.30;61.47;101618.38;5077948;28;46303;-67
2022/07/22 05:43:55;;;;;;;;;11.33;11.33;;;;;20.33;61.24;101618.97;5079434;27;45541;-67
2022/07/22 05:46:20;;;;;;;;;9.67;9.33;;;;;20.31;61.12;101620.97;5079623;27;60848;-68
2022/07/22 05:48:46;;;;;;;;;13.00;11.33;;;;;20.33;61.59;101623.53;5079786;27;45405;-67
2022/07/22 05:51:12;;;;;;;;;15.00;14.33;;;;;20.29;61.35;101619.38;5079727;27;57385;-67
2022/07/22 05:53:38;;;;;;;;;12.00;12.00;;;;;20.23;61.56;101622.53;5079976;27;45167;-67
2022/07/22 05:56:03;;;;;;;;;10.33;9.00;;;;;20.19;61.33;101613.81;5080101;27;45345;-67
2022/07/22 05:58:28;;;;;;;;;14.00;13.00;;;;;20.23;61.57;101606.31;5079909;27;45431;-67
2022/07/22 06:00:54;;;;;;;;;9.00;9.00;;;;;20.28;61.46;101604.13;5078710;27;67171;-67
2022/07/22 06:03:19;;;;;;;;;11.00;11.00;;;;;20.33;61.42;101604.63;5079955;27;45412;-67
2022/07/22 06:05:45;;;;;;;;;15.33;10.00;;;;;20.41;60.99;101604.03;5078800;27;64865;-68
2022/07/22 06:08:10;;;;;;;;;12.00;10.00;;;;;20.45;61.24;101597.38;5079968;27;45397;-68
2022/07/22 06:10:35;;;;;;;;;12.33;11.33;;;;;20.53;61.25;101604.88;5079369;27;45699;-67
2022/07/22 06:13:01;;;;;;;;;10.00;10.00;;;;;20.58;61.01;101616.19;5078949;27;66435;-67
2022/07/22 06:15:26;;;;;;;;;10.00;8.33;;;;;20.63;60.68;101613.97;5079145;27;59513;-67
2022/07/22 06:17:51;;;;;;;;;14.33;12.00;;;;;20.64;60.78;101616.56;5077826;28;60279;-68
2022/07/22 06:20:17;;;;;;;;;11.00;11.00;;;;;20.65;60.17;101612.03;5078805;27;60139;-68
2022/07/22 06:22:42;;;;;;;;;13.33;13.33;;;;;20.61;60.82;101614.09;5079743;27;45397;-68
2022/07/22 06:25:08;;;;;;;;;11.67;11.00;;;;;20.61;60.57;101611.41;5078742;27;60695;-68
2022/07/22 06:27:33;;;;;;;;;13.67;13.67;;;;;20.65;60.39;101612.03;5079596;27;45492;-68
2022/07/22 06:29:59;;;;;;;;;12.00;10.33;;;;;20.75;60.71;101601.34;5079092;27;46052;-68
2022/07/22 06:32:24;;;;;;;;;13.33;10.00;;;;;20.87;60.04;101604.91;5078847;28;59272;-68
2022/07/22 06:34:49;;;;;;;;;11.00;8.00;;;;;21.01;60.24;101601.94;5081372;27;61143;-68
2022/07/22 06:37:15;;;;;;;;;6.67;5.00;;;;;21.12;59.83;101604.63;5082290;27;63758;-68
2022/07/22 06:39:40;;;;;;;;;11.33;10.00;;;;;21.17;59.61;101606.09;5082678;27;47024;-67
2022/07/22 06:42:06;;;;;;;;;9.67;9.00;;;;;21.24;59.49;101615.44;5082990;28;45296;-68
2022/07/22 06:44:31;;;;;;;;;12.00;9.00;;;;;21.35;59.62;101611.81;5081872;27;65984;-68
2022/07/22 06:46:56;;;;;;;;;14.00;12.33;;;;;21.37;58.71;101605.28;5082200;27;65312;-69
2022/07/22 06:49:22;;;;;;;;;14.00;13.00;;;;;21.41;58.94;101611.31;5081658;27;67854;-68
2022/07/22 06:51:47;;;;;;;;;12.67;12.67;;;;;21.45;58.75;101620.91;5082497;27;45285;-68
2022/07/22 06:54:13;;;;;;;;;11.00;11.00;;;;;21.52;58.76;101621.22;5081884;27;61310;-68
2022/07/22 06:56:38;;;;;;;;;13.00;12.00;;;;;21.65;58.70;101627.34;5082081;27;66556;-68
2022/07/22 06:59:03;;;;;;;;;14.67;10.00;;;;;21.83;58.56;101630.34;5081665;27;66773;-68
2022/07/22 07:01:29;;;;;;;;;10.67;10.33;;;;;22.02;57.54;101620.66;5082027;27;59801;-68
2022/07/22 07:03:54;;;;;;;;;12.67;12.67;;;;;22.18;57.71;101629.19;5082155;27;45540;-68
2022/07/22 07:06:19;;;;;;;;;14.00;13.33;;;;;22.37;57.32;101622.19;5081664;27;66906;-68
2022/07/22 07:08:45;;;;;;;;;15.00;11.00;;;;;22.51;56.64;101621.00;5082505;27;46094;-67
2022/07/22 07:11:10;;;;;;;;;13.00;12.00;;;;;22.61;55.89;101611.91;5081546;27;69341;-68
2022/07/22 07:13:35;;;;;;;;;12.33;12.00;;;;;22.75;55.98;101609.81;5081713;27;63966;-68
2022/07/22 07:16:01;;;;;;;;;16.00;15.00;;;;;22.85;55.37;101596.28;5082427;27;45457;-68
2022/07/22 07:18:26;;;;;;;;;15.00;14.00;;;;;22.91;55.14;101584.91;5081228;27;61350;-67
2022/07/22 07:20:52;;;;;;;;;14.00;13.33;;;;;23.03;54.87;101581.06;5082439;27;45370;-68
2022/07/22 07:23:17;;;;;;;;;8.67;8.67;;;;;23.11;54.77;101586.66;5082168;27;45248;-67
2022/07/22 07:25:42;;;;;;;;;13.00;11.33;;;;;23.20;54.18;101582.25;5081560;27;66802;-68
2022/07/22 07:28:08;;;;;;;;;14.00;14.00;;;;;23.29;53.86;101586.00;5081522;28;56677;-68
2022/07/22 07:30:33;;;;;;;;;11.33;11.00;;;;;23.37;54.28;101591.56;5082085;27;45237;-68
2022/07/22 07:33:00;;;;;;;;;13.00;13.00;;;;;23.56;53.94;101579.03;5082261;27;45655;-67
2022/07/22 07:35:26;;;;;;;;;1.33;0.67;;;;;23.76;53.22;101583.41;5082274;27;45300;-68
2022/07/22 07:37:51;;;;;;;;;12.33;12.33;;;;;23.95;52.58;101588.00;5081742;27;45250;-69
2022/07/22 07:40:16;;;;;;;;;13.00;12.00;;;;;24.08;52.52;101590.41;5081228;27;58167;-68
2022/07/22 07:42:42;;;;;;;;;11.00;10.67;;;;;24.21;52.53;101600.97;5081859;27;45492;-68
2022/07/22 07:45:08;;;;;;;;;15.33;13.67;;;;;24.35;51.33;101604.22;5080448;27;57646;-69
2022/07/22 07:47:33;;;;;;;;;18.33;17.33;;;;;24.44;50.74;101598.75;5081674;27;47313;-68
2022/07/22 07:50:00;;;;;;;;;12.67;12.33;;;;;24.55;52.01;101605.00;5079435;28;69390;-69
2022/07/22 07:52:25;;;;;;;;;14.00;12.00;;;;;24.61;51.30;101602.56;5082004;27;45358;-68
2022/07/22 07:54:51;;;;;;;;;11.67;11.00;;;;;24.73;51.39;101603.25;5081656;27;45405;-69
2022/07/22 07:57:17;;;;;;;;;15.00;11.33;;;;;24.85;50.79;101614.78;5081287;27;46029;-68
2022/07/22 07:59:42;;;;;;;;;14.00;13.00;;;;;24.93;50.06;101612.16;5081279;27;45563;-69
2022/07/22 08:02:08;;;;;;;;;13.00;12.67;;;;;25.04;50.37;101612.94;5081563;27;45420;-68
2022/07/22 08:04:35;;;;;;;;;11.33;11.33;;;;;25.15;50.45;101598.25;5081673;27;45783;-69
2022/07/22 08:07:00;;;;;;;;;14.67;14.67;;;;;25.34;49.49;101602.72;5081229;28;46251;-70
2022/07/22 08:09:26;;;;;;;;;13.67;13.00;;;;;25.57;48.75;101595.81;5081181;27;45343;-69
2022/07/22 08:11:51;;;;;;;;;17.33;13.00;;;;;25.78;48.23;101597.38;5080513;27;64211;-69
2022/07/22 08:14:17;;;;;;;;;16.00;14.33;;;;;25.88;48.96;101600.03;5081664;27;45247;-69
2022/07/22 08:16:42;;;;;;;;;16.00;14.67;;;;;25.95;48.29;101586.59;5081286;28;45239;-69
2022/07/22 08:19:08;;;;;;;;;15.67;14.33;;;;;26.01;48.39;101583.22;5079985;27;65738;-69
2022/07/22 08:21:33;;;;;;;;;14.67;14.00;;;;;26.14;48.37;101588.28;5081320;27;45241;-69
2022/07/22 08:23:59;;;;;;;;;9.33;9.00;;;;;26.21;47.32;101582.03;5080501;27;62538;-69
2022/07/22 08:26:24;;;;;;;;;14.00;13.00;;;;;26.15;47.86;101582.69;5081071;27;45408;-69
2022/07/22 08:28:50;;;;;;;;;14.67;14.67;;;;;26.06;47.07;101589.09;5080901;27;45596;-69
2022/07/22 08:31:15;;;;;;;;;17.00;14.00;;;;;25.92;47.36;101587.78;5080209;28;65642;-69
2022/07/22 08:33:41;;;;;;;;;15.67;14.67;;;;;25.87;48.09;101581.94;5079928;27;64471;-69
2022/07/22 08:36:06;;;;;;;;;11.00;9.00;;;;;25.76;47.73;101586.63;5080256;27;66416;-69
2022/07/22 08:38:31;;;;;;;;;16.00;15.33;;;;;25.67;47.98;101593.03;5080535;27;45433;-69
2022/07/22 08:40:57;;;;;;;;;13.00;12.33;;;;;25.65;48.54;101591.47;5081114;28;45493;-70
2022/07/22 08:43:26;;;;;;;;;11.00;10.00;;;;;25.65;47.89;101589.59;5081204;27;45663;-69
2022/07/22 08:45:51;;;;;;;;;16.00;13.33;;;;;25.66;48.04;101576.84;5080974;27;46232;-69
2022/07/22 08:48:17;;;;;;;;;11.33;11.33;;;;;25.63;48.86;101564.41;5078550;28;61694;-70
2022/07/22 08:50:42;;;;;;;;;12.67;12.67;;;;;25.61;48.32;101557.41;5080765;27;45422;-69
2022/07/22 08:53:11;;;;;;;;;21.33;14.33;;;;;25.71;48.47;101556.28;5079790;28;62408;-70
2022/07/22 08:55:44;;;;;;;;;19.00;15.67;;;;;25.87;48.39;101530.19;5080448;27;46075;-70
2022/07/22 08:58:10;;;;;;;;;19.67;17.67;;;;;26.00;47.93;101529.75;5080412;27;45453;-69
2022/07/22 09:00:35;;;;;;;;;16.00;16.00;;;;;26.07;47.55;101512.63;5080402;27;45401;-69
2022/07/22 09:03:16;;;;;;;;;12.67;12.67;;;;;26.17;47.55;101493.41;5080518;27;45485;-69
2022/07/22 09:05:42;;;;;;;;;16.00;15.33;;;;;26.23;46.22;101468.25;5080537;28;46260;-69
2022/07/22 09:08:07;;;;;;;;;13.67;13.67;;;;;26.38;46.97;101467.63;5079626;28;57991;-70
2022/07/22 09:10:34;;;;;;;;;14.00;13.67;;;;;26.40;46.91;101476.50;5079936;27;58826;-69
2022/07/22 09:13:01;;;;;;;;;13.33;11.00;;;;;26.40;47.18;101490.13;5080620;27;45442;-69
2022/07/22 09:15:40;;;;;;;;;17.00;14.00;;;;;26.55;46.74;101509.44;5080216;27;45476;-70
2022/07/22 09:18:06;;;;;;;;;17.67;14.67;;;;;26.78;46.70;101526.09;5080255;27;45434;-70
2022/07/22 09:20:35;;;;;;;;;19.33;14.00;;;;;27.03;47.21;101547.97;5079934;27;45402;-70
2022/07/22 09:23:02;;;;;;;;;13.33;12.33;;;;;27.27;45.95;101565.41;5079945;27;45460;-69
2022/07/22 09:25:32;;;;;;;;;12.67;12.33;;;;;27.45;45.70;101573.50;5078632;28;47318;-70
2022/07/22 09:28:06;;;;;;;;;16.67;15.00;;;;;27.56;45.58;101576.75;5080081;27;45351;-70
2022/07/22 09:30:37;;;;;;;;;11.67;10.00;;;;;27.72;44.83;101562.22;5080030;28;45540;-69
2022/07/22 09:33:03;;;;;;;;;14.67;14.33;;;;;27.80;44.05;101571.44;5080177;27;45319;-69
2022/07/22 09:35:29;;;;;;;;;16.00;13.00;;;;;27.85;44.55;101560.84;5079758;27;46865;-69
2022/07/22 09:37:58;;;;;;;;;8.00;7.67;;;;;27.88;44.39;101555.03;5079861;27;45711;-69
2022/07/22 09:40:25;;;;;;;;;14.00;12.00;;;;;27.95;44.40;101542.38;5080320;27;45246;-70
2022/07/22 09:42:53;;;;;;;;;15.33;14.67;;;;;28.01;44.32;101535.38;5080039;28;45358;-70
2022/07/22 09:45:20;;;;;;;;;17.00;14.33;;;;;27.97;44.40;101529.38;5080037;27;45256;-70
2022/07/22 09:47:46;;;;;;;;;18.00;16.00;;;;;27.94;44.12;101528.88;5080019;27;45354;-69
2022/07/22 09:50:17;;;;;;;;;13.67;13.67;;;;;27.88;44.29;101530.44;5078595;28;45512;-69
2022/07/22 09:52:43;;;;;;;;;17.00;15.00;;;;;27.87;44.45;101547.84;5079835;27;45347;-70
2022/07/22 09:55:08;;;;;;;;;14.67;14.67;;;;;27.87;44.31;101558.78;5079735;27;46964;-70
2022/07/22 09:57:34;;;;;;;;;15.67;15.67;;;;;27.84;43.81;101549.03;5079117;27;70165;-70
2022/07/22 09:59:59;;;;;;;;;15.00;15.00;;;;;27.82;44.18;101550.25;5079887;27;45381;-69
2022/07/22 10:02:27;;;;;;;;;19.00;17.67;;;;;27.86;44.14;101554.34;5078922;27;68063;-70
2022/07/22 10:04:54;;;;;;;;;15.67;14.00;;;;;27.91;44.30;101551.94;5079666;27;45540;-71
2022/07/22 10:07:20;;;;;;;;;15.00;13.67;;;;;27.95;44.04;101549.72;5078256;28;45489;-70
2022/07/22 10:09:46;;;;;;;;;14.00;13.00;;;;;27.87;43.95;101543.25;5082483;27;45473;-70
2022/07/22 10:12:12;;;;;;;;;17.67;14.67;;;;;27.76;44.15;101545.50;5083451;27;45358;-70
2022/07/22 10:14:37;;;;;;;;;15.33;14.67;;;;;27.57;44.36;101542.06;5081212;28;67710;-71
2022/07/22 10:17:03;;;;;;;;;17.00;15.00;;;;;27.40;44.38;101549.41;5081620;28;45700;-70
2022/07/22 10:19:28;;;;;;;;;14.00;12.00;;;;;27.21;44.73;101539.66;5083203;27;45372;-71
2022/07/22 10:21:54;;;;;;;;;14.33;14.33;;;;;27.03;45.26;101528.88;5082676;28;60534;-70
2022/07/22 10:24:23;;;;;;;;;16.00;14.33;;;;;26.86;45.79;101523.38;5082483;27;68514;-71
2022/07/22 10:26:56;;;;;;;;;17.33;17.33;;;;;26.71;46.06;101527.72;5083081;27;45226;-69
2022/07/22 10:29:38;;;;;;;;;14.67;14.67;;;;;26.52;45.60;101529.72;5082963;27;45320;-69
2022/07/22 10:32:15;;;;;;;;;12.33;12.33;;;;;26.38;46.13;101528.44;5082823;27;45342;-69
2022/07/22 10:35:01;;;;;;;;;14.00;13.00;;;;;26.27;46.79;101514.25;5082530;28;45581;-68
2022/07/22 10:37:43;;;;;;;;;15.67;15.00;;;;;26.13;47.38;101522.03;5082705;27;45560;-69
2022/07/22 10:40:20;;;;;;;;;20.33;17.67;;;;;25.96;48.42;101517.44;5082881;27;45418;-68
2022/07/22 10:43:00;;;;;;;;;19.00;17.00;;;;;25.74;49.38;101498.75;5082988;27;45504;-69
2022/07/22 10:45:31;;;;;;;;;14.00;13.00;;;;;25.54;50.26;101478.19;5082621;27;46223;-69
2022/07/22 10:47:58;;;;;;;;;20.00;16.67;;;;;25.35;51.15;101460.19;5081318;28;45409;-71
2022/07/22 10:50:35;;;;;;;;;17.67;17.67;;;;;25.15;52.10;101445.84;5082646;27;45317;-70
2022/07/22 10:53:01;;;;;;;;;18.33;18.00;;;;;24.99;53.22;101439.28;5082524;27;45663;-72
2022/07/22 10:55:26;;;;;;;;;16.67;16.67;;;;;24.83;52.92;101429.09;5082464;27;45520;-71
2022/07/22 10:57:51;;;;;;;;;17.67;17.00;;;;;24.70;54.42;101413.16;5082418;27;49622;-72
2022/07/22 11:00:17;;;;;;;;;24.67;22.33;;;;;24.63;55.23;101398.47;5064405;28;45311;-71
2022/07/22 11:02:43;;;;;;;;;21.00;18.33;;;;;24.55;55.41;101393.78;5082545;27;45488;-72
2022/07/22 11:05:08;;;;;;;;;22.67;21.00;;;;;24.53;55.90;101386.78;5082163;27;45410;-71
2022/07/22 11:07:34;;;;;;;;;27.67;23.67;;;;;24.45;56.26;101371.25;5082342;27;45459;-70